createdAt,value
2018-04-27T00:00:22.914Z,2.30
2018-04-27T00:02:51.683Z,2.50
2018-04-27T00:05:28.583Z,3.17
2018-04-27T00:07:59.255Z,2.55
2018-04-27T00:10:29.275Z,3.10
2018-04-27T00:12:59.295Z,2.85
2018-04-27T00:15:28.243Z,3.60
2018-04-27T00:17:56.263Z,2.92
2018-04-27T00:20:24.302Z,3.10
2018-04-27T00:23:05.766Z,2.55
2018-04-27T00:25:34.539Z,2.62
2018-04-27T00:28:07.057Z,3.37
2018-04-27T00:30:38.830Z,2.80
2018-04-27T00:33:06.866Z,4.68
2018-04-27T00:35:35.894Z,2.47
2018-04-27T00:38:03.910Z,2.50
2018-04-27T00:40:32.679Z,3.15
2018-04-27T00:43:00.683Z,2.80
2018-04-27T00:45:28.679Z,2.58
2018-04-27T00:47:56.671Z,3.22
2018-04-27T00:50:24.707Z,2.75
2018-04-27T00:53:04.391Z,2.40
2018-04-27T00:55:34.370Z,3.40
2018-04-27T00:58:02.407Z,2.97
2018-04-27T01:00:31.191Z,2.72
2018-04-27T01:02:59.971Z,2.70
2018-04-27T01:05:28.727Z,2.95
2018-04-27T01:07:56.771Z,2.65
2018-04-27T01:10:25.779Z,3.12
2018-04-27T01:12:53.799Z,2.75
2018-04-27T01:15:21.811Z,2.60
2018-04-27T01:17:55.372Z,2.58
2018-04-27T01:20:23.400Z,2.85
2018-04-27T01:22:52.315Z,3.10
2018-04-27T01:25:21.128Z,2.95
2018-04-27T01:27:49.151Z,2.60
2018-04-27T01:30:18.051Z,3.30
2018-04-27T01:32:50.582Z,3.12
2018-04-27T01:35:18.627Z,3.53
2018-04-27T01:37:47.414Z,2.72
2018-04-27T01:40:20.027Z,3.05
2018-04-27T01:42:50.033Z,3.05
2018-04-27T01:45:18.758Z,3.35
2018-04-27T01:47:46.773Z,3.05
2018-04-27T01:50:14.795Z,3.40
2018-04-27T01:52:43.739Z,3.35
2018-04-27T01:55:13.711Z,3.80
2018-04-27T01:57:42.506Z,3.10
2018-04-27T02:00:11.296Z,3.33
2018-04-27T02:02:43.723Z,3.45
2018-04-27T02:05:11.723Z,4.40
2018-04-27T02:07:39.711Z,3.70
2018-04-27T02:10:08.483Z,3.75
2018-04-27T02:12:39.184Z,3.55
2018-04-27T02:15:07.223Z,3.28
2018-04-27T02:17:36.172Z,3.75
2018-04-27T02:20:04.184Z,3.78
2018-04-27T02:22:35.719Z,3.40
2018-04-27T02:25:04.536Z,3.00
2018-04-27T02:27:32.564Z,3.70
2018-04-27T02:30:00.575Z,3.25
2018-04-27T02:32:28.580Z,3.75
2018-04-27T02:34:56.616Z,3.70
2018-04-27T02:37:24.640Z,3.62
2018-04-27T02:39:52.662Z,3.72
2018-04-27T02:42:25.746Z,4.00
2018-04-27T02:44:55.678Z,4.50
2018-04-27T02:47:25.598Z,3.67
2018-04-27T02:49:58.962Z,3.45
2018-04-27T02:52:28.891Z,3.72
2018-04-27T02:54:58.815Z,4.15
2018-04-27T02:57:26.844Z,3.95
2018-04-27T02:59:54.881Z,3.58
2018-04-27T03:02:23.847Z,3.05
2018-04-27T03:04:51.871Z,3.78
2018-04-27T03:07:19.876Z,3.53
2018-04-27T03:09:51.226Z,3.60
2018-04-27T03:12:23.015Z,3.00
2018-04-27T03:14:51.991Z,3.12
2018-04-27T03:17:23.771Z,3.75
2018-04-27T03:19:53.742Z,3.22
2018-04-27T03:22:26.223Z,3.62
2018-04-27T03:24:54.227Z,3.75
2018-04-27T03:27:27.427Z,4.10
2018-04-27T03:29:58.131Z,3.95
2018-04-27T03:32:29.687Z,5.37
2018-04-27T03:35:02.551Z,4.43
2018-04-27T03:37:32.479Z,3.33
2018-04-27T03:40:02.515Z,3.72
2018-04-27T03:42:34.895Z,4.28
2018-04-27T03:45:03.658Z,4.30
2018-04-27T03:47:31.654Z,3.58
2018-04-27T03:50:01.327Z,4.40
2018-04-27T03:52:29.340Z,4.40
2018-04-27T03:54:58.110Z,5.07
2018-04-27T03:57:28.087Z,5.70
2018-04-27T04:00:08.170Z,4.10
2018-04-27T04:02:49.244Z,3.87
2018-04-27T04:05:28.566Z,4.45
2018-04-27T04:07:56.582Z,4.03
2018-04-27T04:10:24.594Z,3.92
2018-04-27T04:12:53.491Z,4.47
2018-04-27T04:15:22.471Z,4.18
2018-04-27T04:18:00.762Z,3.60
2018-04-27T04:20:28.777Z,5.50
2018-04-27T04:22:56.778Z,4.40
2018-04-27T04:25:29.202Z,4.10
2018-04-27T04:27:58.185Z,4.80
2018-04-27T04:30:26.209Z,3.70
2018-04-27T04:32:54.997Z,4.70
2018-04-27T04:35:23.009Z,3.55
2018-04-27T04:37:51.046Z,4.65
2018-04-27T04:40:22.125Z,5.18
2018-04-27T04:42:52.018Z,4.40
2018-04-27T04:45:20.020Z,3.95
2018-04-27T04:47:48.018Z,4.43
2018-04-27T04:50:16.789Z,3.90
2018-04-27T04:52:48.717Z,3.50
2018-04-27T04:55:17.738Z,4.00
2018-04-27T04:57:49.530Z,4.72
2018-04-27T05:00:18.470Z,5.85
2018-04-27T05:02:47.487Z,5.95
2018-04-27T05:05:15.478Z,8.82
2018-04-27T05:07:46.154Z,9.65
2018-04-27T05:10:14.970Z,8.10
2018-04-27T05:12:44.350Z,7.82
2018-04-27T05:15:12.361Z,8.25
2018-04-27T05:17:42.230Z,6.85
2018-04-27T05:20:10.646Z,6.82
2018-04-27T05:22:40.436Z,7.30
2018-04-27T05:25:14.814Z,6.75
2018-04-27T05:27:47.344Z,5.93
2018-04-27T05:30:15.345Z,5.30
2018-04-27T05:32:48.465Z,4.18
2018-04-27T05:35:20.009Z,4.85
2018-04-27T05:37:48.025Z,5.50
2018-04-27T05:40:17.685Z,6.37
2018-04-27T05:42:45.693Z,5.87
2018-04-27T05:45:14.649Z,5.32
2018-04-27T05:47:43.649Z,4.47
2018-04-27T05:50:12.556Z,4.75
2018-04-27T05:52:40.568Z,5.07
2018-04-27T05:55:14.393Z,5.25
2018-04-27T05:57:42.392Z,4.72
2018-04-27T06:00:13.490Z,4.90
2018-04-27T06:02:47.117Z,4.85
2018-04-27T06:05:18.069Z,2.00
2018-04-27T06:07:51.128Z,2.12
2018-04-27T06:10:30.861Z,1.95
2018-04-27T06:12:58.885Z,2.50
2018-04-27T06:15:32.152Z,2.60
2018-04-27T06:18:00.166Z,2.00
2018-04-27T06:20:30.845Z,2.47
2018-04-27T06:22:58.852Z,2.15
2018-04-27T06:25:26.884Z,2.28
2018-04-27T06:27:54.901Z,2.30
2018-04-27T06:30:25.588Z,2.12
2018-04-27T06:32:53.597Z,1.50
2018-04-27T06:35:22.368Z,1.95
2018-04-27T06:37:50.388Z,1.92
2018-04-27T06:40:21.508Z,2.20
2018-04-27T06:42:56.976Z,1.65
2018-04-27T06:45:39.564Z,1.60
2018-04-27T06:48:13.948Z,1.85
2018-04-27T06:50:46.712Z,2.40
2018-04-27T06:53:20.536Z,2.70
2018-04-27T06:55:54.296Z,2.10
2018-04-27T06:58:25.979Z,2.10
2018-04-27T07:00:53.976Z,2.17
2018-04-27T07:03:23.963Z,1.93
2018-04-27T07:05:52.956Z,2.17
2018-04-27T07:08:22.976Z,2.30
2018-04-27T07:10:51.960Z,2.80
2018-04-27T07:13:19.968Z,2.23
2018-04-27T07:15:47.964Z,2.87
2018-04-27T07:18:17.856Z,2.80
2018-04-27T07:20:49.864Z,2.20
2018-04-27T07:23:19.784Z,2.20
2018-04-27T07:25:52.449Z,2.33
2018-04-27T07:28:22.161Z,2.67
2018-04-27T07:30:51.090Z,2.50
2018-04-27T07:33:19.136Z,2.23
2018-04-27T07:35:54.149Z,2.57
2018-04-27T07:38:22.151Z,3.13
2018-04-27T07:40:55.129Z,2.23
2018-04-27T07:43:23.128Z,2.70
2018-04-27T07:45:51.137Z,2.73
2018-04-27T07:48:19.140Z,4.13
2018-04-27T07:50:47.144Z,3.23
2018-04-27T07:56:08.488Z,3.03
2018-04-27T07:58:49.488Z,3.20
2018-04-27T08:01:18.404Z,2.87
2018-04-27T08:03:47.200Z,3.37
2018-04-27T08:06:15.202Z,4.07
2018-04-27T08:08:44.153Z,2.57
2018-04-27T08:11:15.488Z,3.07
2018-04-27T08:13:55.013Z,2.40
2018-04-27T08:16:29.032Z,2.63
2018-04-27T08:19:02.632Z,2.60
2018-04-27T08:21:33.280Z,2.40
2018-04-27T08:24:02.180Z,1.60
2018-04-27T08:26:31.156Z,1.83
2018-04-27T08:29:00.024Z,2.17
2018-04-27T08:31:28.952Z,2.03
2018-04-27T08:33:56.959Z,2.17
2018-04-27T08:36:25.736Z,1.70
2018-04-27T08:38:55.727Z,2.37
2018-04-27T08:41:27.263Z,2.50
2018-04-27T08:43:58.927Z,2.10
2018-04-27T08:46:26.928Z,2.30
2018-04-27T08:49:03.224Z,2.50
2018-04-27T08:51:37.089Z,2.07
2018-04-27T08:54:10.156Z,1.80
2018-04-27T08:56:38.177Z,2.20
2018-04-27T08:59:11.248Z,1.90
2018-04-27T09:01:39.205Z,1.97
2018-04-27T09:04:07.212Z,2.30
2018-04-27T09:06:39.323Z,2.00
2018-04-27T09:09:07.337Z,1.77
2018-04-27T09:11:36.106Z,2.37
2018-04-27T09:14:10.070Z,1.93
2018-04-27T09:16:45.090Z,1.70
2018-04-27T09:19:18.994Z,1.97
2018-04-27T09:21:46.999Z,2.20
2018-04-27T09:24:15.999Z,1.80
2018-04-27T09:26:48.424Z,2.97
2018-04-27T09:29:30.798Z,2.50
2018-04-27T09:34:55.790Z,2.40
2018-04-27T09:37:36.010Z,1.93
2018-04-27T09:40:11.086Z,2.50
2018-04-27T09:42:39.978Z,1.90
2018-04-27T09:45:08.969Z,2.07
2018-04-27T09:47:36.970Z,3.30
2018-04-27T09:50:12.354Z,2.53
2018-04-27T09:52:57.182Z,2.80
2018-04-27T09:55:26.829Z,2.63
2018-04-27T09:58:09.961Z,2.70
2018-04-27T10:00:41.243Z,2.30
2018-04-27T10:03:10.140Z,2.30
2018-04-27T10:05:39.153Z,2.10
2018-04-27T10:08:13.252Z,2.67
2018-04-27T10:10:45.376Z,2.40
2018-04-27T10:13:13.380Z,2.80
2018-04-27T10:15:45.184Z,2.50
2018-04-27T10:18:16.244Z,2.50
2018-04-27T10:20:47.689Z,2.93
2018-04-27T10:23:15.689Z,2.97
2018-04-27T10:25:49.737Z,2.50
2018-04-27T10:28:20.797Z,2.70
2018-04-27T10:30:49.797Z,2.97
2018-04-27T10:33:24.901Z,3.23
2018-04-27T10:35:53.826Z,2.93
2018-04-27T10:38:23.728Z,2.63
2018-04-27T10:40:51.732Z,2.60
2018-04-27T10:43:29.715Z,3.30
2018-04-27T10:46:00.847Z,3.43
2018-04-27T10:48:37.311Z,2.80
2018-04-27T10:51:08.351Z,2.43
2018-04-27T10:53:41.891Z,2.63
2018-04-27T10:56:10.852Z,2.80
2018-04-27T10:58:39.610Z,3.17
2018-04-27T11:01:11.975Z,3.70
2018-04-27T11:03:42.763Z,3.10
2018-04-27T11:06:10.800Z,2.70
2018-04-27T11:08:41.464Z,3.13
2018-04-27T11:11:12.585Z,3.00
2018-04-27T11:13:42.504Z,2.90
2018-04-27T11:16:11.454Z,3.67
2018-04-27T11:18:43.014Z,3.70
2018-04-27T11:21:11.869Z,3.50
2018-04-27T11:23:39.978Z,3.60
2018-04-27T11:26:18.914Z,3.33
2018-04-27T11:28:53.457Z,3.53
2018-04-27T11:31:25.849Z,3.07
2018-04-27T11:33:54.824Z,3.90
2018-04-27T11:36:22.817Z,3.67
2018-04-27T11:38:56.390Z,4.10
2018-04-27T11:41:24.390Z,4.00
2018-04-27T11:43:52.410Z,4.13
2018-04-27T11:46:28.298Z,3.30
2018-04-27T11:49:06.261Z,3.87
2018-04-27T11:51:42.937Z,4.40
2018-04-27T11:54:12.913Z,3.67
2018-04-27T11:56:44.342Z,3.73
2018-04-27T11:59:12.358Z,3.73
2018-04-27T12:01:42.180Z,3.57
2018-04-27T12:04:10.093Z,3.57
2018-04-27T12:06:38.097Z,3.37
2018-04-27T12:09:10.551Z,3.50
2018-04-27T12:11:45.205Z,2.73
2018-04-27T12:14:13.152Z,3.00
2018-04-27T12:19:38.021Z,3.10
2018-04-27T12:22:07.000Z,2.90
2018-04-27T12:24:35.993Z,2.67
2018-04-27T12:27:03.997Z,2.43
2018-04-27T12:29:31.993Z,2.97
2018-04-27T12:32:01.748Z,2.50
2018-04-27T12:34:29.751Z,2.60
2018-04-27T12:37:02.181Z,3.03
2018-04-27T12:39:31.257Z,2.57
2018-04-27T12:42:01.220Z,2.77
2018-04-27T12:44:30.101Z,2.40
2018-04-27T12:46:58.100Z,2.20
2018-04-27T12:49:26.105Z,2.27
2018-04-27T12:51:56.045Z,2.30
2018-04-27T12:54:25.954Z,3.20
2018-04-27T12:56:54.944Z,2.70
2018-04-27T12:59:22.941Z,2.70
2018-04-27T13:01:50.933Z,2.20
2018-04-27T13:04:19.697Z,2.50
2018-04-27T13:06:47.689Z,2.73
2018-04-27T13:09:22.180Z,2.90
2018-04-27T13:11:55.968Z,2.97
2018-04-27T13:14:23.985Z,2.27
2018-04-27T13:16:53.953Z,2.20
2018-04-27T13:19:23.686Z,2.20
2018-04-27T13:21:51.681Z,2.40
2018-04-27T13:24:25.048Z,2.67
2018-04-27T13:26:54.272Z,2.27
2018-04-27T13:29:41.381Z,2.43
2018-04-27T13:32:09.407Z,2.73
2018-04-27T13:34:40.484Z,2.40
2018-04-27T13:37:08.497Z,2.10
2018-04-27T13:39:38.386Z,2.13
2018-04-27T13:42:09.077Z,2.60
2018-04-27T13:44:44.385Z,2.33
2018-04-27T13:47:23.009Z,2.67
2018-04-27T13:49:51.013Z,2.43
2018-04-27T13:52:22.045Z,2.47
2018-04-27T13:54:50.962Z,2.27
2018-04-27T13:57:19.030Z,2.40
2018-04-27T13:59:48.708Z,2.20
2018-04-27T14:02:21.101Z,1.87
2018-04-27T14:04:49.105Z,2.50
2018-04-27T14:07:20.933Z,2.10
2018-04-27T14:09:48.970Z,2.23
2018-04-27T14:12:21.349Z,2.03
2018-04-27T14:14:49.356Z,2.00
2018-04-27T14:17:17.365Z,2.20
2018-04-27T14:19:48.780Z,2.13
2018-04-27T14:22:17.721Z,2.03
2018-04-27T14:24:45.717Z,2.13
2018-04-27T14:27:18.456Z,2.10
2018-04-27T14:29:46.464Z,2.40
2018-04-27T14:32:19.276Z,2.10
2018-04-27T14:34:48.057Z,2.50
2018-04-27T14:37:16.976Z,1.87
2018-04-27T14:39:44.981Z,2.30
2018-04-27T14:42:13.868Z,2.47
2018-04-27T14:44:48.152Z,2.50
2018-04-27T14:47:17.111Z,2.57
2018-04-27T14:49:45.120Z,2.53
2018-04-27T14:52:13.104Z,2.07
2018-04-27T14:54:42.099Z,2.57
2018-04-27T14:57:10.099Z,3.40
2018-04-27T14:59:40.084Z,2.53
2018-04-27T15:02:10.952Z,2.20
2018-04-27T15:04:42.700Z,2.90
2018-04-27T15:07:10.698Z,2.43
2018-04-27T15:09:40.451Z,2.50
2018-04-27T15:12:09.511Z,3.10
2018-04-27T15:14:48.884Z,3.13
2018-04-27T15:17:16.896Z,2.27
2018-04-27T15:19:46.875Z,2.27
2018-04-27T15:22:15.860Z,2.40
2018-04-27T15:24:44.936Z,3.23
2018-04-27T15:27:12.932Z,2.53
2018-04-27T15:29:41.919Z,3.23
2018-04-27T15:32:09.911Z,2.83
2018-04-27T15:34:43.135Z,3.17
2018-04-27T15:37:12.887Z,2.90
2018-04-27T15:39:41.888Z,2.93
2018-04-27T15:42:10.819Z,2.30
2018-04-27T15:44:39.771Z,3.23
2018-04-27T15:47:08.767Z,2.60
2018-04-27T15:49:37.771Z,2.60
2018-04-27T15:52:06.742Z,2.93
2018-04-27T15:54:35.643Z,2.33
2018-04-27T15:57:04.531Z,3.60
2018-04-27T15:59:38.223Z,3.10
2018-04-27T16:02:07.879Z,3.00
2018-04-27T16:04:36.643Z,3.30
2018-04-27T16:07:04.669Z,3.00
2018-04-27T16:09:32.744Z,2.40
2018-04-27T16:12:00.675Z,2.87
2018-04-27T16:14:30.461Z,3.27
2018-04-27T16:16:58.455Z,2.87
2018-04-27T16:19:27.415Z,2.80
2018-04-27T16:21:56.403Z,2.93
2018-04-27T16:24:24.408Z,2.87
2018-04-27T16:26:57.612Z,2.60
2018-04-27T16:29:33.695Z,3.23
2018-04-27T16:32:02.619Z,3.50
2018-04-27T16:34:34.351Z,2.67
2018-04-27T16:37:04.283Z,2.80
2018-04-27T16:39:32.288Z,3.83
2018-04-27T16:42:00.759Z,3.27
2018-04-27T16:44:28.715Z,2.70
2018-04-27T16:47:01.632Z,2.80
2018-04-27T16:49:30.655Z,2.47
2018-04-27T16:52:08.903Z,3.10
2018-04-27T16:54:37.927Z,2.30
2018-04-27T16:57:05.875Z,2.77
2018-04-27T16:59:35.763Z,2.40
2018-04-27T17:02:04.070Z,2.83
2018-04-27T17:04:34.091Z,2.50
2018-04-27T17:07:02.099Z,2.47
2018-04-27T17:09:33.610Z,2.50
2018-04-27T17:12:03.507Z,2.67
2018-04-27T17:14:32.479Z,2.70
2018-04-27T17:17:02.455Z,2.67
2018-04-27T17:19:32.294Z,2.53
2018-04-27T17:22:02.255Z,3.00
2018-04-27T17:24:33.875Z,2.30
2018-04-27T17:27:01.895Z,3.07
2018-04-27T17:29:36.291Z,2.50
2018-04-27T17:32:09.059Z,2.30
2018-04-27T17:34:37.069Z,2.00
2018-04-27T17:37:05.238Z,2.60
2018-04-27T17:39:33.107Z,2.57
2018-04-27T17:42:04.710Z,2.43
2018-04-27T17:44:33.283Z,2.73
2018-04-27T17:47:03.584Z,2.67
2018-04-27T17:49:32.503Z,2.00
2018-04-27T17:52:00.542Z,2.70
2018-04-27T17:54:28.550Z,2.70
2018-04-27T17:56:56.562Z,2.90
2018-04-27T17:59:25.372Z,3.10
2018-04-27T18:01:55.138Z,2.43
2018-04-27T18:04:24.295Z,2.77
2018-04-27T18:06:52.379Z,2.80
2018-04-27T18:09:20.471Z,2.80
2018-04-27T18:11:48.550Z,3.23
2018-04-27T18:14:16.510Z,3.50
2018-04-27T18:16:44.550Z,2.97
2018-04-27T18:19:12.535Z,2.90
2018-04-27T18:21:40.547Z,3.03
2018-04-27T18:24:09.319Z,2.70
2018-04-27T18:26:37.327Z,2.70
2018-04-27T18:29:09.027Z,2.70
2018-04-27T18:31:37.047Z,3.07
2018-04-27T18:34:05.967Z,2.37
2018-04-27T18:36:34.995Z,3.13
2018-04-27T18:39:03.027Z,2.60
2018-04-27T18:41:34.828Z,2.70
2018-04-27T18:44:03.782Z,2.97
2018-04-27T18:46:31.804Z,3.37
2018-04-27T18:49:00.595Z,2.60
2018-04-27T18:51:29.368Z,3.40
2018-04-27T18:54:00.986Z,3.33
2018-04-27T18:56:32.011Z,3.23
2018-04-27T18:59:03.730Z,2.87
2018-04-27T19:01:32.506Z,2.73
2018-04-27T19:04:02.111Z,2.90
2018-04-27T19:06:34.135Z,2.73
2018-04-27T19:09:02.194Z,2.50
2018-04-27T19:11:30.191Z,2.20
2018-04-27T19:13:58.208Z,2.47
2018-04-27T19:16:26.212Z,2.60
2018-04-27T19:18:55.933Z,2.40
2018-04-27T19:21:26.004Z,2.73
2018-04-27T19:23:54.957Z,2.43
2018-04-27T19:26:23.778Z,2.30
2018-04-27T19:28:51.870Z,2.50
2018-04-27T19:31:20.722Z,2.93
2018-04-27T19:33:50.954Z,2.30
2018-04-27T19:36:20.718Z,3.20
2018-04-27T19:38:50.746Z,3.03
2018-04-27T19:41:19.731Z,2.77
2018-04-27T19:43:47.743Z,2.27
2018-04-27T19:46:23.430Z,3.13
2018-04-27T19:48:59.730Z,2.73
2018-04-27T19:51:27.730Z,3.00
2018-04-27T19:53:55.752Z,3.37
2018-04-27T19:56:37.358Z,3.27
2018-04-27T19:59:05.352Z,2.80
2018-04-27T20:01:33.331Z,2.77
2018-04-27T20:04:01.334Z,2.87
2018-04-27T20:06:29.350Z,3.23
2018-04-27T20:08:58.132Z,3.27
2018-04-27T20:11:26.191Z,3.30
2018-04-27T20:13:55.078Z,3.10
2018-04-27T20:16:34.846Z,3.30
2018-04-27T20:19:06.130Z,3.37
2018-04-27T20:21:39.314Z,3.07
2018-04-27T20:24:08.238Z,3.30
2018-04-27T20:26:42.035Z,2.70
2018-04-27T20:29:21.711Z,2.70
2018-04-27T20:31:52.866Z,4.50
2018-04-27T20:34:23.450Z,3.47
2018-04-27T20:36:52.438Z,3.83
2018-04-27T20:39:24.811Z,3.90
2018-04-27T20:41:53.435Z,4.47
2018-04-27T20:44:23.291Z,3.90
2018-04-27T20:46:51.262Z,3.47
2018-04-27T20:49:22.250Z,4.20
2018-04-27T20:51:50.273Z,3.70
2018-04-27T20:54:18.290Z,3.53
2018-04-27T20:56:47.250Z,3.43
2018-04-27T20:59:19.418Z,2.90
2018-04-27T21:01:55.741Z,3.43
2018-04-27T21:04:25.696Z,3.73
2018-04-27T21:06:58.539Z,3.60
2018-04-27T21:09:37.134Z,4.20
2018-04-27T21:12:07.466Z,3.33
2018-04-27T21:14:36.266Z,2.87
2018-04-27T21:17:04.275Z,3.67
2018-04-27T21:19:34.197Z,3.80
2018-04-27T21:22:03.207Z,3.67
2018-04-27T21:24:34.350Z,4.20
2018-04-27T21:27:02.362Z,3.67
2018-04-27T21:29:35.897Z,3.77
2018-04-27T21:32:05.614Z,3.77
2018-04-27T21:34:33.709Z,3.60
2018-04-27T21:37:02.485Z,3.47
2018-04-27T21:39:32.301Z,3.27
2018-04-27T21:42:03.113Z,4.00
2018-04-27T21:44:37.025Z,3.60
2018-04-27T21:47:07.258Z,3.20
2018-04-27T21:49:35.274Z,3.60
2018-04-27T21:52:07.342Z,3.80
2018-04-27T21:54:35.569Z,2.80
2018-04-27T21:57:06.098Z,3.27
2018-04-27T21:59:38.057Z,4.30
2018-04-27T22:05:40.717Z,3.13
2018-04-27T22:08:09.746Z,4.10
2018-04-27T22:10:37.749Z,3.97
2018-04-27T22:13:06.517Z,3.47
2018-04-27T22:15:35.310Z,4.30
2018-04-27T22:18:07.554Z,4.23
2018-04-27T22:20:39.561Z,3.73
2018-04-27T22:23:07.562Z,4.33
2018-04-27T22:25:43.285Z,3.77
2018-04-27T22:28:15.929Z,4.53
2018-04-27T22:30:50.521Z,3.97
2018-04-27T22:33:24.297Z,3.80
2018-04-27T22:35:55.917Z,5.47
2018-04-27T22:38:37.389Z,4.37
2018-04-27T22:41:11.125Z,4.30
2018-04-27T22:43:40.069Z,4.47
2018-04-27T22:46:09.861Z,3.78
2018-04-27T22:48:44.401Z,3.90
2018-04-27T22:51:33.865Z,4.47
2018-04-27T22:54:04.797Z,4.37
2018-04-27T23:10:00.660Z,6.22
2018-04-27T23:12:33.245Z,6.68
2018-04-27T23:15:09.761Z,4.37
2018-04-27T23:17:57.133Z,4.60
2018-04-27T23:20:26.082Z,4.60
2018-04-27T23:22:56.890Z,4.75
2018-04-27T23:25:30.486Z,5.20
2018-04-27T23:27:59.461Z,5.50
2018-04-27T23:30:37.425Z,3.97
2018-04-27T23:33:05.440Z,5.20
2018-04-27T23:35:40.009Z,7.95
2018-04-27T23:38:08.976Z,5.37
2018-04-27T23:40:37.017Z,6.65
2018-04-27T23:43:08.772Z,6.03
2018-04-27T23:45:44.232Z,6.15
2018-04-27T23:48:29.844Z,5.90
2018-04-27T23:50:59.661Z,5.70
2018-04-27T23:53:28.544Z,6.95
2018-04-27T23:56:07.140Z,6.25
2018-04-27T23:58:35.137Z,5.10
